createdAt,value
2018-05-21T00:00:32.332Z,0.00
2018-05-21T00:01:32.320Z,0.00
2018-05-21T00:02:32.365Z,0.00
2018-05-21T00:03:32.347Z,0.00
2018-05-21T00:04:32.399Z,0.00
2018-05-21T00:05:32.364Z,0.00
2018-05-21T00:06:32.372Z,0.00
2018-05-21T00:07:32.376Z,0.00
2018-05-21T00:08:32.422Z,0.00
2018-05-21T00:09:32.478Z,0.00
2018-05-21T00:10:32.650Z,0.00
2018-05-21T00:11:32.438Z,0.00
2018-05-21T00:12:32.458Z,0.00
2018-05-21T00:13:32.499Z,0.00
2018-05-21T00:14:32.468Z,0.00
2018-05-21T00:15:32.516Z,0.00
2018-05-21T00:16:32.535Z,0.00
2018-05-21T00:17:32.491Z,0.00
2018-05-21T00:18:32.511Z,0.00
2018-05-21T00:19:32.520Z,0.00
2018-05-21T00:20:32.564Z,0.00
2018-05-21T00:21:32.571Z,0.00
2018-05-21T00:22:32.583Z,0.00
2018-05-21T00:23:32.590Z,0.00
2018-05-21T00:24:32.579Z,0.00
2018-05-21T00:25:32.599Z,0.00
2018-05-21T00:26:32.871Z,0.00
2018-05-21T00:27:32.722Z,0.00
2018-05-21T00:28:32.624Z,0.00
2018-05-21T00:29:32.628Z,0.00
2018-05-21T00:30:32.637Z,0.00
2018-05-21T00:31:32.748Z,0.00
2018-05-21T00:32:32.697Z,0.00
2018-05-21T00:33:32.702Z,0.00
2018-05-21T00:34:32.705Z,0.00
2018-05-21T00:35:32.725Z,0.00
2018-05-21T00:36:32.713Z,0.00
2018-05-21T00:37:32.778Z,0.00
2018-05-21T00:38:32.793Z,0.00
2018-05-21T00:39:32.746Z,0.00
2018-05-21T00:40:32.746Z,0.00
2018-05-21T00:41:32.762Z,0.00
2018-05-21T00:42:32.812Z,0.00
2018-05-21T00:43:32.810Z,0.00
2018-05-21T00:44:32.836Z,0.00
2018-05-21T00:45:33.400Z,0.00
2018-05-21T00:46:32.828Z,0.00
2018-05-21T00:47:32.850Z,0.00
2018-05-21T00:48:32.840Z,0.00
2018-05-21T00:49:32.875Z,0.00
2018-05-21T00:50:32.875Z,0.00
2018-05-21T00:51:32.875Z,0.00
2018-05-21T00:52:32.876Z,0.00
2018-05-21T00:53:33.224Z,0.00
2018-05-21T00:54:32.896Z,0.00
2018-05-21T00:55:32.954Z,0.00
2018-05-21T00:56:32.921Z,0.00
2018-05-21T00:57:33.015Z,0.00
2018-05-21T00:58:33.021Z,0.00
2018-05-21T00:59:32.959Z,0.00
2018-05-21T01:00:32.984Z,0.00
2018-05-21T01:01:32.988Z,0.00
2018-05-21T01:02:33.004Z,0.00
2018-05-21T01:03:33.054Z,0.00
2018-05-21T01:04:33.059Z,0.00
2018-05-21T01:05:33.034Z,0.00
2018-05-21T01:06:33.789Z,0.00
2018-05-21T01:07:33.037Z,0.00
2018-05-21T01:08:33.117Z,0.00
2018-05-21T01:09:33.107Z,0.00
2018-05-21T01:10:33.073Z,0.00
2018-05-21T01:11:33.897Z,0.00
2018-05-21T01:12:33.121Z,0.00
2018-05-21T01:13:33.121Z,0.00
2018-05-21T01:14:33.145Z,0.00
2018-05-21T01:15:33.247Z,0.00
2018-05-21T01:16:33.150Z,0.00
2018-05-21T01:17:33.162Z,0.00
2018-05-21T01:18:33.156Z,0.00
2018-05-21T01:19:33.485Z,0.00
2018-05-21T01:20:33.176Z,0.00
2018-05-21T01:21:33.228Z,0.00
2018-05-21T01:22:33.195Z,0.00
2018-05-21T01:23:33.239Z,0.00
2018-05-21T01:24:33.232Z,0.00
2018-05-21T01:25:33.230Z,0.00
2018-05-21T01:26:33.282Z,0.00
2018-05-21T01:27:33.259Z,0.00
2018-05-21T01:28:33.307Z,0.00
2018-05-21T01:29:33.287Z,0.00
2018-05-21T01:30:33.282Z,0.00
2018-05-21T01:31:33.306Z,0.00
2018-05-21T01:32:33.565Z,0.00
2018-05-21T01:33:33.381Z,0.00
2018-05-21T01:34:33.344Z,0.00
2018-05-21T01:35:33.344Z,0.00
2018-05-21T01:36:33.355Z,0.00
2018-05-21T01:37:33.394Z,0.00
2018-05-21T01:38:33.375Z,0.00
2018-05-21T01:39:33.451Z,0.00
2018-05-21T01:40:33.399Z,0.00
2018-05-21T01:41:33.421Z,0.00
2018-05-21T01:42:33.438Z,0.00
2018-05-21T01:43:33.432Z,0.00
2018-05-21T01:44:33.469Z,0.00
2018-05-21T01:45:33.453Z,0.00
2018-05-21T01:46:33.471Z,0.00
2018-05-21T01:47:33.498Z,0.00
2018-05-21T01:48:33.482Z,0.00
2018-05-21T01:49:33.506Z,0.00
2018-05-21T01:50:33.731Z,0.00
2018-05-21T01:51:33.509Z,0.00
2018-05-21T01:52:33.592Z,0.00
2018-05-21T01:53:33.533Z,0.00
2018-05-21T01:54:33.548Z,0.00
2018-05-21T01:55:33.550Z,0.00
2018-05-21T01:56:33.563Z,0.00
2018-05-21T01:57:33.606Z,0.00
2018-05-21T01:58:33.588Z,0.00
2018-05-21T01:59:33.680Z,0.00
2018-05-21T02:00:33.715Z,0.00
2018-05-21T02:01:33.633Z,0.00
2018-05-21T02:02:33.613Z,0.00
2018-05-21T02:03:33.628Z,0.00
2018-05-21T02:04:33.673Z,0.00
2018-05-21T02:05:33.713Z,0.00
2018-05-21T02:06:33.686Z,0.00
2018-05-21T02:07:33.688Z,0.00
2018-05-21T02:08:33.779Z,0.00
2018-05-21T02:09:33.697Z,0.00
2018-05-21T02:10:33.716Z,0.00
2018-05-21T02:11:33.841Z,0.00
2018-05-21T02:12:33.717Z,0.00
2018-05-21T02:13:33.726Z,0.00
2018-05-21T02:14:33.734Z,0.00
2018-05-21T02:15:33.753Z,0.00
2018-05-21T02:16:33.756Z,0.00
2018-05-21T02:17:33.843Z,0.00
2018-05-21T02:18:33.777Z,0.00
2018-05-21T02:19:33.820Z,0.00
2018-05-21T02:20:33.822Z,0.00
2018-05-21T02:21:33.807Z,0.00
2018-05-21T02:22:33.931Z,0.00
2018-05-21T02:23:33.854Z,0.00
2018-05-21T02:24:33.897Z,0.00
2018-05-21T02:25:33.861Z,0.00
2018-05-21T02:26:33.871Z,0.00
2018-05-21T02:27:33.877Z,0.00
2018-05-21T02:28:33.935Z,0.00
2018-05-21T02:29:33.936Z,0.00
2018-05-21T02:30:33.897Z,0.00
2018-05-21T02:31:33.918Z,0.00
2018-05-21T02:32:33.913Z,0.00
2018-05-21T02:33:34.022Z,0.00
2018-05-21T02:34:34.014Z,0.00
2018-05-21T02:35:33.973Z,0.00
2018-05-21T02:36:33.973Z,0.00
2018-05-21T02:37:34.070Z,0.00
2018-05-21T02:38:33.976Z,0.00
2018-05-21T02:39:34.038Z,0.00
2018-05-21T02:40:34.067Z,0.00
2018-05-21T02:41:34.019Z,0.00
2018-05-21T02:42:34.026Z,0.00
2018-05-21T02:43:34.033Z,0.00
2018-05-21T02:44:34.912Z,0.00
2018-05-21T02:45:34.104Z,0.00
2018-05-21T02:46:34.115Z,0.00
2018-05-21T02:47:34.071Z,0.00
2018-05-21T02:48:34.791Z,0.00
2018-05-21T02:49:34.109Z,0.00
2018-05-21T02:50:34.118Z,0.00
2018-05-21T02:51:34.130Z,0.00
2018-05-21T02:52:34.187Z,0.00
2018-05-21T02:53:34.141Z,0.00
2018-05-21T02:54:34.159Z,0.00
2018-05-21T02:55:34.202Z,0.00
2018-05-21T02:56:34.173Z,0.00
2018-05-21T02:57:34.228Z,0.00
2018-05-21T02:58:34.192Z,0.00
2018-05-21T02:59:34.202Z,0.00
2018-05-21T03:00:34.206Z,5.63
2018-05-21T03:01:34.219Z,5.63
2018-05-21T03:02:34.270Z,5.63
2018-05-21T03:03:34.270Z,5.63
2018-05-21T03:04:34.268Z,5.63
2018-05-21T03:05:34.287Z,5.63
2018-05-21T03:06:34.397Z,5.63
2018-05-21T03:07:34.275Z,5.63
2018-05-21T03:08:34.331Z,5.63
2018-05-21T03:09:34.311Z,5.63
2018-05-21T03:10:34.318Z,11.25
2018-05-21T03:11:34.324Z,11.25
2018-05-21T03:12:34.330Z,11.25
2018-05-21T03:13:34.382Z,11.25
2018-05-21T03:14:34.408Z,11.25
2018-05-21T03:15:34.373Z,11.25
2018-05-21T03:16:34.373Z,11.25
2018-05-21T03:17:34.410Z,16.88
2018-05-21T03:18:34.377Z,16.88
2018-05-21T03:19:34.402Z,16.88
2018-05-21T03:20:34.452Z,16.88
2018-05-21T03:21:34.437Z,16.88
2018-05-21T03:22:34.418Z,22.50
2018-05-21T03:23:34.436Z,22.50
2018-05-21T03:24:34.436Z,28.13
2018-05-21T03:25:34.487Z,28.13
2018-05-21T03:26:34.522Z,33.75
2018-05-21T03:27:34.478Z,33.75
2018-05-21T03:28:34.606Z,33.75
2018-05-21T03:29:34.509Z,39.38
2018-05-21T03:30:34.516Z,39.38
2018-05-21T03:31:34.557Z,39.38
2018-05-21T03:32:34.523Z,39.38
2018-05-21T03:33:34.550Z,39.38
2018-05-21T03:34:34.568Z,39.38
2018-05-21T03:35:34.550Z,45.00
2018-05-21T03:36:34.599Z,50.63
2018-05-21T03:37:34.652Z,56.25
2018-05-21T03:38:34.590Z,56.25
2018-05-21T03:39:34.810Z,61.88
2018-05-21T03:40:34.612Z,61.88
2018-05-21T03:41:34.635Z,67.50
2018-05-21T03:42:34.644Z,67.50
2018-05-21T03:43:34.968Z,73.13
2018-05-21T03:44:34.661Z,73.13
2018-05-21T03:45:34.748Z,67.50
2018-05-21T03:46:34.694Z,78.75
2018-05-21T03:47:34.691Z,84.38
2018-05-21T03:48:34.737Z,84.38
2018-05-21T03:49:34.747Z,90.00
2018-05-21T03:50:35.081Z,90.00
2018-05-21T03:51:34.719Z,101.25
2018-05-21T03:52:41.424Z,101.25
2018-05-21T03:53:34.818Z,106.88
2018-05-21T03:54:34.776Z,123.75
2018-05-21T03:55:34.807Z,129.38
2018-05-21T03:56:35.080Z,135.00
2018-05-21T03:57:35.103Z,140.63
2018-05-21T03:58:34.810Z,151.88
2018-05-21T03:59:34.816Z,157.50
2018-05-21T04:00:34.848Z,163.13
2018-05-21T04:01:35.076Z,168.75
2018-05-21T04:02:34.954Z,174.38
2018-05-21T04:03:34.919Z,180.00
2018-05-21T04:04:35.520Z,191.25
2018-05-21T04:05:34.852Z,191.25
2018-05-21T04:06:34.899Z,191.25
2018-05-21T04:07:34.920Z,213.75
2018-05-21T04:08:34.964Z,219.38
2018-05-21T04:09:34.900Z,230.63
2018-05-21T04:10:34.930Z,241.88
2018-05-21T04:11:34.925Z,253.13
2018-05-21T04:12:35.002Z,264.38
2018-05-21T04:13:34.988Z,270.00
2018-05-21T04:14:34.967Z,292.50
2018-05-21T04:15:35.066Z,298.13
2018-05-21T04:16:34.989Z,309.38
2018-05-21T04:17:35.021Z,320.63
2018-05-21T04:18:35.058Z,326.25
2018-05-21T04:19:35.012Z,337.50
2018-05-21T04:20:35.031Z,354.38
2018-05-21T04:21:35.057Z,360.00
2018-05-21T04:22:35.043Z,365.63
2018-05-21T04:23:35.098Z,376.88
2018-05-21T04:24:35.075Z,382.50
2018-05-21T04:25:35.085Z,399.38
2018-05-21T04:26:35.136Z,416.25
2018-05-21T04:27:35.100Z,433.13
2018-05-21T04:28:35.105Z,444.38
2018-05-21T04:29:35.134Z,444.38
2018-05-21T04:30:35.140Z,438.75
2018-05-21T04:31:35.167Z,388.13
2018-05-21T04:32:35.170Z,416.25
2018-05-21T04:33:35.534Z,399.38
2018-05-21T04:34:35.170Z,376.88
2018-05-21T04:35:35.234Z,354.38
2018-05-21T04:36:35.205Z,343.13
2018-05-21T04:37:35.207Z,326.25
2018-05-21T04:38:35.222Z,315.00
2018-05-21T04:39:35.372Z,320.63
2018-05-21T04:40:35.307Z,320.63
2018-05-21T04:41:35.255Z,331.88
2018-05-21T04:42:35.278Z,337.50
2018-05-21T04:43:35.380Z,343.13
2018-05-21T04:44:35.298Z,348.75
2018-05-21T04:45:36.304Z,360.00
2018-05-21T04:46:35.376Z,365.63
2018-05-21T04:47:35.343Z,405.00
2018-05-21T04:48:35.346Z,455.63
2018-05-21T04:49:35.349Z,506.25
2018-05-21T04:50:35.382Z,545.63
2018-05-21T04:51:35.406Z,596.25
2018-05-21T04:52:35.370Z,624.38
2018-05-21T04:53:35.422Z,669.38
2018-05-21T04:54:35.413Z,703.13
2018-05-21T04:55:35.432Z,742.50
2018-05-21T04:56:35.499Z,781.88
2018-05-21T04:57:35.449Z,798.75
2018-05-21T04:58:35.675Z,804.38
2018-05-21T04:59:35.470Z,804.38
2018-05-21T05:00:35.470Z,804.38
2018-05-21T05:01:35.542Z,804.38
2018-05-21T05:02:35.530Z,804.38
2018-05-21T05:03:35.531Z,804.38
2018-05-21T05:04:35.544Z,804.38
2018-05-21T05:05:36.431Z,810.00
2018-05-21T05:06:35.602Z,810.00
2018-05-21T05:07:35.576Z,815.63
2018-05-21T05:08:35.609Z,821.25
2018-05-21T05:09:35.651Z,821.25
2018-05-21T05:10:35.782Z,810.00
2018-05-21T05:11:35.647Z,804.38
2018-05-21T05:12:35.666Z,849.38
2018-05-21T05:13:35.661Z,911.25
2018-05-21T05:14:35.676Z,945.00
2018-05-21T05:15:35.678Z,961.88
2018-05-21T05:16:36.309Z,973.13
2018-05-21T05:17:35.755Z,984.38
2018-05-21T05:18:35.735Z,984.38
2018-05-21T05:19:35.749Z,984.38
2018-05-21T05:20:35.751Z,973.13
2018-05-21T05:21:35.769Z,967.50
2018-05-21T05:22:36.439Z,967.50
2018-05-21T05:23:35.987Z,967.50
2018-05-21T05:24:35.805Z,973.13
2018-05-21T05:25:35.846Z,973.13
2018-05-21T05:26:35.932Z,978.75
2018-05-21T05:27:35.858Z,956.25
2018-05-21T05:28:35.920Z,928.13
2018-05-21T05:29:35.876Z,894.38
2018-05-21T05:30:35.894Z,877.50
2018-05-21T05:31:35.942Z,826.88
2018-05-21T05:32:35.943Z,748.13
2018-05-21T05:33:36.000Z,658.13
2018-05-21T05:34:36.011Z,618.75
2018-05-21T05:35:35.976Z,613.13
2018-05-21T05:36:36.006Z,635.63
2018-05-21T05:37:36.026Z,663.75
2018-05-21T05:38:36.084Z,669.38
2018-05-21T05:39:36.040Z,635.63
2018-05-21T05:40:36.058Z,573.75
2018-05-21T05:41:36.934Z,489.38
2018-05-21T05:42:36.113Z,376.88
2018-05-21T05:43:36.167Z,247.50
2018-05-21T05:44:36.186Z,174.38
2018-05-21T05:45:36.136Z,163.13
2018-05-21T05:46:36.166Z,157.50
2018-05-21T05:47:36.185Z,157.50
2018-05-21T05:48:36.430Z,168.75
2018-05-21T05:49:36.443Z,185.63
2018-05-21T05:50:36.250Z,163.13
2018-05-21T05:51:36.242Z,146.25
2018-05-21T05:52:36.260Z,140.63
2018-05-21T05:53:36.260Z,135.00
2018-05-21T05:54:36.366Z,135.00
2018-05-21T05:55:36.318Z,135.00
2018-05-21T05:56:36.317Z,129.38
2018-05-21T05:57:36.344Z,135.00
2018-05-21T05:58:36.350Z,135.00
2018-05-21T05:59:36.502Z,129.38
2018-05-21T06:00:36.423Z,129.38
2018-05-21T06:01:36.409Z,123.75
2018-05-21T06:02:36.418Z,123.75
2018-05-21T06:03:36.490Z,123.75
2018-05-21T06:04:36.500Z,123.75
2018-05-21T06:05:36.611Z,123.75
2018-05-21T06:06:36.547Z,123.75
2018-05-21T06:07:36.496Z,123.75
2018-05-21T06:08:36.520Z,123.75
2018-05-21T06:09:36.515Z,118.13
2018-05-21T06:10:36.559Z,118.13
2018-05-21T06:11:36.549Z,118.13
2018-05-21T06:12:36.594Z,118.13
2018-05-21T06:13:36.622Z,118.13
2018-05-21T06:14:36.600Z,118.13
2018-05-21T06:15:36.633Z,118.13
2018-05-21T06:16:36.690Z,118.13
2018-05-21T06:17:36.617Z,118.13
2018-05-21T06:18:36.655Z,123.75
2018-05-21T06:19:36.655Z,123.75
2018-05-21T06:20:37.477Z,118.13
2018-05-21T06:21:36.695Z,123.75
2018-05-21T06:22:36.750Z,118.13
2018-05-21T06:23:37.097Z,118.13
2018-05-21T06:24:36.722Z,118.13
2018-05-21T06:25:36.734Z,118.13
2018-05-21T06:26:36.743Z,118.13
2018-05-21T06:27:36.809Z,118.13
2018-05-21T06:28:36.773Z,118.13
2018-05-21T06:29:36.773Z,118.13
2018-05-21T06:30:36.808Z,118.13
2018-05-21T06:31:36.881Z,118.13
2018-05-21T06:32:36.972Z,118.13
2018-05-21T06:33:36.829Z,123.75
2018-05-21T06:34:36.967Z,123.75
2018-05-21T06:35:36.861Z,129.38
2018-05-21T06:36:36.867Z,146.25
2018-05-21T06:37:36.984Z,168.75
2018-05-21T06:38:37.026Z,213.75
2018-05-21T06:39:36.911Z,219.38
2018-05-21T06:40:36.913Z,163.13
2018-05-21T06:41:36.954Z,129.38
2018-05-21T06:42:36.956Z,118.13
2018-05-21T06:43:37.028Z,118.13
2018-05-21T06:44:37.129Z,118.13
2018-05-21T06:45:37.154Z,112.50
2018-05-21T06:46:37.004Z,112.50
2018-05-21T06:47:37.073Z,112.50
2018-05-21T06:48:37.050Z,112.50
2018-05-21T06:49:37.100Z,112.50
2018-05-21T06:50:37.071Z,112.50
2018-05-21T06:51:37.159Z,112.50
2018-05-21T06:52:37.163Z,112.50
2018-05-21T06:53:37.089Z,112.50
2018-05-21T06:54:37.139Z,106.88
2018-05-21T06:55:37.158Z,106.88
2018-05-21T06:56:37.129Z,106.88
2018-05-21T06:57:37.378Z,106.88
2018-05-21T06:58:37.145Z,106.88
2018-05-21T06:59:37.436Z,106.88
2018-05-21T07:00:37.178Z,106.88
2018-05-21T07:01:37.342Z,106.88
2018-05-21T07:02:37.204Z,106.88
2018-05-21T07:03:37.209Z,106.88
2018-05-21T07:04:37.262Z,106.88
2018-05-21T07:05:37.271Z,84.38
2018-05-21T07:06:37.987Z,106.88
2018-05-21T07:07:37.945Z,106.88
2018-05-21T07:08:37.292Z,106.88
2018-05-21T07:09:37.305Z,106.88
2018-05-21T07:10:37.376Z,106.88
2018-05-21T07:11:37.324Z,106.88
2018-05-21T07:12:37.319Z,106.88
2018-05-21T07:13:37.483Z,106.88
2018-05-21T07:14:37.361Z,106.88
2018-05-21T07:15:37.404Z,106.88
2018-05-21T07:16:37.419Z,106.88
2018-05-21T07:17:37.393Z,106.88
2018-05-21T07:18:37.399Z,106.88
2018-05-21T07:19:37.437Z,106.88
2018-05-21T07:20:37.544Z,101.25
2018-05-21T07:21:37.500Z,101.25
2018-05-21T07:22:37.463Z,101.25
2018-05-21T07:23:37.466Z,101.25
2018-05-21T07:24:37.478Z,101.25
2018-05-21T07:25:37.509Z,101.25
2018-05-21T07:26:37.570Z,101.25
2018-05-21T07:27:38.441Z,101.25
2018-05-21T07:28:37.537Z,101.25
2018-05-21T07:29:37.543Z,101.25
2018-05-21T07:30:37.553Z,101.25
2018-05-21T07:31:37.637Z,101.25
2018-05-21T07:32:37.582Z,101.25
2018-05-21T07:33:37.585Z,95.63
2018-05-21T07:34:38.438Z,95.63
2018-05-21T07:35:37.630Z,95.63
2018-05-21T07:36:37.696Z,95.63
2018-05-21T07:37:37.787Z,95.63
2018-05-21T07:38:37.667Z,95.63
2018-05-21T07:39:37.698Z,95.63
2018-05-21T07:40:37.680Z,95.63
2018-05-21T07:41:37.915Z,95.63
2018-05-21T07:42:37.705Z,95.63
2018-05-21T07:43:37.762Z,95.63
2018-05-21T07:44:37.745Z,95.63
2018-05-21T07:45:37.752Z,95.63
2018-05-21T07:46:37.775Z,95.63
2018-05-21T07:47:37.800Z,95.63
2018-05-21T07:48:38.484Z,95.63
2018-05-21T07:49:37.802Z,95.63
2018-05-21T07:50:37.806Z,95.63
2018-05-21T07:51:38.101Z,90.00
2018-05-21T07:52:37.855Z,90.00
2018-05-21T07:53:37.839Z,90.00
2018-05-21T07:54:37.897Z,90.00
2018-05-21T07:55:38.486Z,90.00
2018-05-21T07:56:37.894Z,90.00
2018-05-21T07:57:37.898Z,90.00
2018-05-21T07:58:37.910Z,90.00
2018-05-21T07:59:37.946Z,90.00
2018-05-21T08:00:37.981Z,90.00
2018-05-21T08:01:37.968Z,90.00
2018-05-21T08:02:38.101Z,90.00
2018-05-21T08:03:37.975Z,90.00
2018-05-21T08:04:37.982Z,90.00
2018-05-21T08:05:38.065Z,90.00
2018-05-21T08:06:38.021Z,90.00
2018-05-21T08:07:38.027Z,90.00
2018-05-21T08:08:38.029Z,90.00
2018-05-21T08:09:38.300Z,90.00
2018-05-21T08:10:38.105Z,90.00
2018-05-21T08:11:38.178Z,90.00
2018-05-21T08:12:38.106Z,90.00
2018-05-21T08:13:38.125Z,90.00
2018-05-21T08:14:38.147Z,90.00
2018-05-21T08:15:38.131Z,90.00
2018-05-21T08:16:38.509Z,90.00
2018-05-21T08:17:38.159Z,90.00
2018-05-21T08:18:38.164Z,90.00
2018-05-21T08:19:38.198Z,84.38
2018-05-21T08:20:38.223Z,84.38
2018-05-21T08:21:38.273Z,84.38
2018-05-21T08:22:38.358Z,84.38
2018-05-21T08:23:38.954Z,84.38
2018-05-21T08:24:38.242Z,84.38
2018-05-21T08:25:38.257Z,84.38
2018-05-21T08:26:38.301Z,84.38
2018-05-21T08:27:38.309Z,84.38
2018-05-21T08:28:38.316Z,84.38
2018-05-21T08:29:38.302Z,84.38
2018-05-21T08:30:38.332Z,84.38
2018-05-21T08:31:38.349Z,84.38
2018-05-21T08:32:38.382Z,84.38
2018-05-21T08:33:38.370Z,84.38
2018-05-21T08:34:38.376Z,84.38
2018-05-21T08:35:38.381Z,84.38
2018-05-21T08:36:38.410Z,84.38
2018-05-21T08:37:38.442Z,84.38
2018-05-21T08:38:38.527Z,84.38
2018-05-21T08:39:38.429Z,84.38
2018-05-21T08:40:38.465Z,84.38
2018-05-21T08:41:38.476Z,84.38
2018-05-21T08:42:38.536Z,84.38
2018-05-21T08:43:38.484Z,84.38
2018-05-21T08:44:38.573Z,84.38
2018-05-21T08:45:38.527Z,84.38
2018-05-21T08:46:38.562Z,84.38
2018-05-21T08:47:38.553Z,84.38
2018-05-21T08:48:38.597Z,84.38
2018-05-21T08:49:38.586Z,84.38
2018-05-21T08:50:38.611Z,84.38
2018-05-21T08:51:38.597Z,84.38
2018-05-21T08:52:38.613Z,84.38
2018-05-21T08:53:38.661Z,84.38
2018-05-21T08:54:39.004Z,84.38
2018-05-21T08:55:38.678Z,84.38
2018-05-21T08:56:38.788Z,84.38
2018-05-21T08:57:38.701Z,84.38
2018-05-21T08:58:38.695Z,84.38
2018-05-21T08:59:38.709Z,84.38
2018-05-21T09:00:38.790Z,84.38
2018-05-21T09:01:38.779Z,84.38
2018-05-21T09:02:38.750Z,84.38
2018-05-21T09:03:38.755Z,84.38
2018-05-21T09:04:38.867Z,84.38
2018-05-21T09:05:38.803Z,84.38
2018-05-21T09:06:38.825Z,84.38
2018-05-21T09:07:38.808Z,84.38
2018-05-21T09:08:38.825Z,84.38
2018-05-21T09:09:38.881Z,84.38
2018-05-21T09:10:38.875Z,84.38
2018-05-21T09:11:38.880Z,84.38
2018-05-21T09:12:38.878Z,84.38
2018-05-21T09:13:38.892Z,84.38
2018-05-21T09:14:38.915Z,84.38
2018-05-21T09:15:39.004Z,84.38
2018-05-21T09:16:38.943Z,84.38
2018-05-21T09:17:38.969Z,84.38
2018-05-21T09:18:38.949Z,84.38
2018-05-21T09:19:39.030Z,84.38
2018-05-21T09:20:39.039Z,84.38
2018-05-21T09:21:39.032Z,84.38
2018-05-21T09:22:39.108Z,84.38
2018-05-21T09:23:39.051Z,84.38
2018-05-21T09:24:39.022Z,84.38
2018-05-21T09:25:39.037Z,84.38
2018-05-21T09:26:39.152Z,84.38
2018-05-21T09:27:39.061Z,84.38
2018-05-21T09:28:39.106Z,84.38
2018-05-21T09:29:39.159Z,84.38
2018-05-21T09:30:39.121Z,84.38
2018-05-21T09:31:39.128Z,84.38
2018-05-21T09:32:39.530Z,90.00
2018-05-21T09:33:39.148Z,84.38
2018-05-21T09:34:39.183Z,78.75
2018-05-21T09:35:39.187Z,84.38
2018-05-21T09:36:39.190Z,84.38
2018-05-21T09:37:39.236Z,84.38
2018-05-21T09:38:39.220Z,84.38
2018-05-21T09:39:39.232Z,90.00
2018-05-21T09:40:39.245Z,84.38
2018-05-21T09:41:39.286Z,90.00
2018-05-21T09:42:39.312Z,73.13
2018-05-21T09:43:39.301Z,84.38
2018-05-21T09:44:39.308Z,84.38
2018-05-21T09:45:39.313Z,73.13
2018-05-21T09:46:39.338Z,90.00
2018-05-21T09:47:39.391Z,78.75
2018-05-21T09:48:39.414Z,95.63
2018-05-21T09:49:39.361Z,95.63
2018-05-21T09:50:39.367Z,95.63
2018-05-21T09:51:39.405Z,95.63
2018-05-21T09:52:39.653Z,101.25
2018-05-21T09:53:39.465Z,95.63
2018-05-21T09:54:39.435Z,95.63
2018-05-21T09:55:39.436Z,95.63
2018-05-21T09:56:39.476Z,90.00
2018-05-21T09:57:39.458Z,90.00
2018-05-21T09:58:39.521Z,95.63
2018-05-21T09:59:39.524Z,95.63
2018-05-21T10:00:39.612Z,90.00
2018-05-21T10:01:39.562Z,90.00
2018-05-21T10:02:39.571Z,90.00
2018-05-21T10:03:39.553Z,84.38
2018-05-21T10:04:39.606Z,84.38
2018-05-21T10:05:39.583Z,84.38
2018-05-21T10:06:39.591Z,84.38
2018-05-21T10:07:40.452Z,84.38
2018-05-21T10:08:39.632Z,84.38
2018-05-21T10:09:40.050Z,84.38
2018-05-21T10:10:39.652Z,90.00
2018-05-21T10:11:39.676Z,84.38
2018-05-21T10:12:39.663Z,84.38
2018-05-21T10:13:39.694Z,84.38
2018-05-21T10:14:39.770Z,67.50
2018-05-21T10:15:39.708Z,84.38
2018-05-21T10:16:39.749Z,84.38
2018-05-21T10:17:39.759Z,84.38
2018-05-21T10:18:39.757Z,78.75
2018-05-21T10:19:39.802Z,84.38
2018-05-21T10:20:39.816Z,90.00
2018-05-21T10:21:39.818Z,84.38
2018-05-21T10:22:39.875Z,84.38
2018-05-21T10:23:39.822Z,84.38
2018-05-21T10:24:39.821Z,90.00
2018-05-21T10:25:39.913Z,90.00
2018-05-21T10:26:39.984Z,90.00
2018-05-21T10:27:39.979Z,95.63
2018-05-21T10:28:39.883Z,95.63
2018-05-21T10:29:39.932Z,78.75
2018-05-21T10:30:39.935Z,78.75
2018-05-21T10:31:39.953Z,78.75
2018-05-21T10:32:39.950Z,78.75
2018-05-21T10:33:40.498Z,90.00
2018-05-21T10:34:39.974Z,90.00
2018-05-21T10:35:39.999Z,95.63
2018-05-21T10:36:40.065Z,95.63
2018-05-21T10:37:40.010Z,95.63
2018-05-21T10:38:40.034Z,95.63
2018-05-21T10:39:40.026Z,95.63
2018-05-21T10:40:40.044Z,101.25
2018-05-21T10:41:40.098Z,106.88
2018-05-21T10:42:40.105Z,101.25
2018-05-21T10:43:40.138Z,101.25
2018-05-21T10:44:40.119Z,90.00
2018-05-21T10:45:40.132Z,84.38
2018-05-21T10:46:40.187Z,95.63
2018-05-21T10:47:40.199Z,95.63
2018-05-21T10:48:40.276Z,90.00
2018-05-21T10:49:40.177Z,90.00
2018-05-21T10:50:40.407Z,95.63
2018-05-21T10:51:40.194Z,95.63
2018-05-21T10:52:40.219Z,95.63
2018-05-21T10:53:40.264Z,95.63
2018-05-21T10:54:40.240Z,95.63
2018-05-21T10:55:40.275Z,95.63
2018-05-21T10:56:40.252Z,95.63
2018-05-21T10:57:40.415Z,95.63
2018-05-21T10:58:40.367Z,112.50
2018-05-21T10:59:40.317Z,123.75
2018-05-21T11:00:40.335Z,129.38
2018-05-21T11:01:40.339Z,135.00
2018-05-21T11:02:40.384Z,129.38
2018-05-21T11:03:40.348Z,129.38
2018-05-21T11:04:40.378Z,118.13
2018-05-21T11:05:40.404Z,118.13
2018-05-21T11:06:40.470Z,112.50
2018-05-21T11:07:40.517Z,106.88
2018-05-21T11:08:40.427Z,101.25
2018-05-21T11:09:40.447Z,106.88
2018-05-21T11:10:40.481Z,112.50
2018-05-21T11:11:40.536Z,118.13
2018-05-21T11:12:40.489Z,112.50
2018-05-21T11:13:40.494Z,112.50
2018-05-21T11:14:40.530Z,112.50
2018-05-21T11:15:40.532Z,118.13
2018-05-21T11:16:40.591Z,123.75
2018-05-21T11:17:40.588Z,112.50
2018-05-21T11:18:40.601Z,123.75
2018-05-21T11:19:40.573Z,112.50
2018-05-21T11:20:40.598Z,135.00
2018-05-21T11:21:40.602Z,140.63
2018-05-21T11:22:40.642Z,140.63
2018-05-21T11:23:40.694Z,135.00
2018-05-21T11:24:40.793Z,135.00
2018-05-21T11:25:40.674Z,129.38
2018-05-21T11:26:40.670Z,118.13
2018-05-21T11:27:40.713Z,123.75
2018-05-21T11:28:40.744Z,118.13
2018-05-21T11:29:40.717Z,118.13
2018-05-21T11:30:40.785Z,112.50
2018-05-21T11:31:40.747Z,112.50
2018-05-21T11:32:40.772Z,118.13
2018-05-21T11:33:40.768Z,118.13
2018-05-21T11:34:40.937Z,118.13
2018-05-21T11:35:40.863Z,118.13
2018-05-21T11:36:40.841Z,112.50
2018-05-21T11:37:40.841Z,112.50
2018-05-21T11:38:40.846Z,118.13
2018-05-21T11:39:40.859Z,112.50
2018-05-21T11:40:40.910Z,118.13
2018-05-21T11:41:40.878Z,112.50
2018-05-21T11:42:40.895Z,129.38
2018-05-21T11:43:40.970Z,123.75
2018-05-21T11:44:41.092Z,129.38
2018-05-21T11:45:40.951Z,129.38
2018-05-21T11:46:40.957Z,129.38
2018-05-21T11:47:40.999Z,129.38
2018-05-21T11:48:41.022Z,123.75
2018-05-21T11:49:40.988Z,123.75
2018-05-21T11:50:41.119Z,129.38
2018-05-21T11:51:41.042Z,123.75
2018-05-21T11:52:41.068Z,123.75
2018-05-21T11:53:41.056Z,118.13
2018-05-21T11:54:41.158Z,118.13
2018-05-21T11:55:41.153Z,129.38
2018-05-21T11:56:41.082Z,123.75
2018-05-21T11:57:41.121Z,123.75
2018-05-21T11:58:41.135Z,129.38
2018-05-21T11:59:41.139Z,123.75
2018-05-21T12:00:41.291Z,123.75
2018-05-21T12:01:41.224Z,123.75
2018-05-21T12:02:41.213Z,123.75
2018-05-21T12:03:41.185Z,123.75
2018-05-21T12:04:41.231Z,129.38
2018-05-21T12:05:41.236Z,129.38
2018-05-21T12:06:41.257Z,129.38
2018-05-21T12:07:41.369Z,129.38
2018-05-21T12:08:41.267Z,129.38
2018-05-21T12:09:41.274Z,129.38
2018-05-21T12:10:41.280Z,135.00
2018-05-21T12:11:41.801Z,135.00
2018-05-21T12:12:41.338Z,129.38
2018-05-21T12:13:41.349Z,135.00
2018-05-21T12:14:41.349Z,135.00
2018-05-21T12:15:41.363Z,135.00
2018-05-21T12:16:41.373Z,129.38
2018-05-21T12:17:41.443Z,129.38
2018-05-21T12:18:41.392Z,135.00
2018-05-21T12:19:41.437Z,135.00
2018-05-21T12:20:41.453Z,135.00
2018-05-21T12:21:41.561Z,140.63
2018-05-21T12:22:41.471Z,135.00
2018-05-21T12:23:41.472Z,140.63
2018-05-21T12:24:41.497Z,146.25
2018-05-21T12:25:41.524Z,151.88
2018-05-21T12:26:41.537Z,151.88
2018-05-21T12:27:41.549Z,151.88
2018-05-21T12:28:41.613Z,146.25
2018-05-21T12:29:41.627Z,146.25
2018-05-21T12:30:41.581Z,151.88
2018-05-21T12:31:41.625Z,151.88
2018-05-21T12:32:41.633Z,151.88
2018-05-21T12:33:41.629Z,157.50
2018-05-21T12:34:42.520Z,157.50
2018-05-21T12:35:41.643Z,151.88
2018-05-21T12:36:41.702Z,151.88
2018-05-21T12:37:41.757Z,151.88
2018-05-21T12:38:41.691Z,146.25
2018-05-21T12:39:41.739Z,140.63
2018-05-21T12:40:41.714Z,135.00
2018-05-21T12:41:42.069Z,129.38
2018-05-21T12:42:41.803Z,135.00
2018-05-21T12:43:41.761Z,135.00
2018-05-21T12:44:41.774Z,135.00
2018-05-21T12:45:41.780Z,135.00
2018-05-21T12:46:41.802Z,140.63
2018-05-21T12:47:41.865Z,135.00